sensor_id;sensor_type;location;lat;lon;timestamp;P1;durP1;ratioP1;P2;durP2;ratioP2
69280;SDS011;56392;51.082;17.080;2022-12-11T00:04:04;65.28;;;22.75;;
69280;SDS011;56392;51.082;17.080;2022-12-11T00:09:27;62.53;;;21.07;;
69280;SDS011;56392;51.082;17.080;2022-12-11T00:14:50;69.53;;;23.30;;
69280;SDS011;56392;51.082;17.080;2022-12-11T00:20:15;65.38;;;23.65;;
69280;SDS011;56392;51.082;17.080;2022-12-11T00:25:39;64.57;;;24.40;;
69280;SDS011;56392;51.082;17.080;2022-12-11T00:31:03;63.35;;;22.80;;
69280;SDS011;56392;51.082;17.080;2022-12-11T00:36:28;67.68;;;23.40;;
69280;SDS011;56392;51.082;17.080;2022-12-11T00:41:51;69.17;;;23.53;;
69280;SDS011;56392;51.082;17.080;2022-12-11T00:47:14;65.43;;;22.60;;
69280;SDS011;56392;51.082;17.080;2022-12-11T00:52:38;66.55;;;22.75;;
69280;SDS011;56392;51.082;17.080;2022-12-11T00:58:01;61.45;;;23.40;;
69280;SDS011;56392;51.082;17.080;2022-12-11T01:03:24;66.30;;;22.37;;
69280;SDS011;56392;51.082;17.080;2022-12-11T01:08:49;66.80;;;24.80;;
69280;SDS011;56392;51.082;17.080;2022-12-11T01:14:33;64.28;;;22.23;;
69280;SDS011;56392;51.082;17.080;2022-12-11T01:19:57;57.47;;;21.47;;
69280;SDS011;56392;51.082;17.080;2022-12-11T01:25:21;62.33;;;23.20;;
69280;SDS011;56392;51.082;17.080;2022-12-11T01:30:44;63.38;;;23.50;;
69280;SDS011;56392;51.082;17.080;2022-12-11T01:36:07;57.50;;;22.27;;
69280;SDS011;56392;51.082;17.080;2022-12-11T01:41:33;60.60;;;21.98;;
69280;SDS011;56392;51.082;17.080;2022-12-11T01:46:56;62.45;;;22.83;;
69280;SDS011;56392;51.082;17.080;2022-12-11T01:52:20;62.27;;;22.47;;
69280;SDS011;56392;51.082;17.080;2022-12-11T01:57:46;59.50;;;21.80;;
69280;SDS011;56392;51.082;17.080;2022-12-11T02:03:12;59.40;;;23.05;;
69280;SDS011;56392;51.082;17.080;2022-12-11T02:08:35;56.72;;;21.33;;
69280;SDS011;56392;51.082;17.080;2022-12-11T02:14:01;61.73;;;21.57;;
69280;SDS011;56392;51.082;17.080;2022-12-11T02:19:36;59.38;;;22.85;;
69280;SDS011;56392;51.082;17.080;2022-12-11T02:25:14;51.38;;;18.52;;
69280;SDS011;56392;51.082;17.080;2022-12-11T02:30:44;57.77;;;20.77;;
69280;SDS011;56392;51.082;17.080;2022-12-11T02:36:09;59.53;;;21.17;;
69280;SDS011;56392;51.082;17.080;2022-12-11T02:41:35;57.45;;;22.27;;
69280;SDS011;56392;51.082;17.080;2022-12-11T02:47:01;53.63;;;19.20;;
69280;SDS011;56392;51.082;17.080;2022-12-11T02:52:26;54.90;;;21.40;;
69280;SDS011;56392;51.082;17.080;2022-12-11T02:57:52;52.60;;;20.58;;
69280;SDS011;56392;51.082;17.080;2022-12-11T03:03:22;52.85;;;20.83;;
69280;SDS011;56392;51.082;17.080;2022-12-11T03:08:46;50.73;;;18.57;;
69280;SDS011;56392;51.082;17.080;2022-12-11T03:14:12;55.80;;;19.42;;
69280;SDS011;56392;51.082;17.080;2022-12-11T03:19:37;55.88;;;20.85;;
69280;SDS011;56392;51.082;17.080;2022-12-11T03:25:04;50.80;;;19.27;;
69280;SDS011;56392;51.082;17.080;2022-12-11T03:30:33;52.63;;;19.13;;
69280;SDS011;56392;51.082;17.080;2022-12-11T03:36:00;53.33;;;19.13;;
69280;SDS011;56392;51.082;17.080;2022-12-11T03:41:26;56.40;;;19.70;;
69280;SDS011;56392;51.082;17.080;2022-12-11T03:46:52;51.47;;;18.45;;
69280;SDS011;56392;51.082;17.080;2022-12-11T03:52:19;50.22;;;18.58;;
69280;SDS011;56392;51.082;17.080;2022-12-11T03:57:43;52.10;;;19.10;;
69280;SDS011;56392;51.082;17.080;2022-12-11T04:03:06;51.53;;;19.13;;
69280;SDS011;56392;51.082;17.080;2022-12-11T04:08:38;52.78;;;20.10;;
69280;SDS011;56392;51.082;17.080;2022-12-11T04:14:01;49.05;;;18.65;;
69280;SDS011;56392;51.082;17.080;2022-12-11T04:19:42;46.37;;;17.63;;
69280;SDS011;56392;51.082;17.080;2022-12-11T04:25:36;53.58;;;20.10;;
69280;SDS011;56392;51.082;17.080;2022-12-11T04:30:59;46.28;;;17.15;;
69280;SDS011;56392;51.082;17.080;2022-12-11T04:36:22;46.83;;;18.40;;
69280;SDS011;56392;51.082;17.080;2022-12-11T04:41:46;47.88;;;17.50;;
69280;SDS011;56392;51.082;17.080;2022-12-11T04:47:09;52.22;;;19.67;;
69280;SDS011;56392;51.082;17.080;2022-12-11T04:52:33;53.87;;;19.70;;
69280;SDS011;56392;51.082;17.080;2022-12-11T04:57:57;54.10;;;19.65;;
69280;SDS011;56392;51.082;17.080;2022-12-11T05:03:20;52.35;;;19.65;;
69280;SDS011;56392;51.082;17.080;2022-12-11T05:08:43;45.87;;;17.77;;
69280;SDS011;56392;51.082;17.080;2022-12-11T05:14:08;50.13;;;18.70;;
69280;SDS011;56392;51.082;17.080;2022-12-11T05:19:31;46.08;;;18.98;;
69280;SDS011;56392;51.082;17.080;2022-12-11T05:24:54;38.23;;;14.33;;
69280;SDS011;56392;51.082;17.080;2022-12-11T05:30:18;40.95;;;17.38;;
69280;SDS011;56392;51.082;17.080;2022-12-11T05:35:45;43.67;;;17.52;;
69280;SDS011;56392;51.082;17.080;2022-12-11T05:41:09;38.40;;;16.47;;
69280;SDS011;56392;51.082;17.080;2022-12-11T05:46:36;39.47;;;17.00;;
69280;SDS011;56392;51.082;17.080;2022-12-11T05:51:59;41.38;;;16.63;;
69280;SDS011;56392;51.082;17.080;2022-12-11T05:57:22;45.90;;;17.20;;
69280;SDS011;56392;51.082;17.080;2022-12-11T06:02:46;37.63;;;15.18;;
69280;SDS011;56392;51.082;17.080;2022-12-11T06:08:09;36.45;;;15.15;;
69280;SDS011;56392;51.082;17.080;2022-12-11T06:13:32;35.47;;;15.40;;
69280;SDS011;56392;51.082;17.080;2022-12-11T06:18:57;36.28;;;14.93;;
69280;SDS011;56392;51.082;17.080;2022-12-11T06:24:20;35.40;;;15.13;;
69280;SDS011;56392;51.082;17.080;2022-12-11T06:29:45;36.10;;;15.00;;
69280;SDS011;56392;51.082;17.080;2022-12-11T06:35:09;38.03;;;15.10;;
69280;SDS011;56392;51.082;17.080;2022-12-11T06:40:33;35.57;;;14.20;;
69280;SDS011;56392;51.082;17.080;2022-12-11T06:45:56;35.23;;;14.23;;
69280;SDS011;56392;51.082;17.080;2022-12-11T06:51:21;36.15;;;15.15;;
69280;SDS011;56392;51.082;17.080;2022-12-11T06:56:45;33.50;;;12.50;;
69280;SDS011;56392;51.082;17.080;2022-12-11T07:02:08;34.53;;;14.00;;
69280;SDS011;56392;51.082;17.080;2022-12-11T07:07:36;33.58;;;14.20;;
69280;SDS011;56392;51.082;17.080;2022-12-11T07:12:59;35.08;;;13.60;;
69280;SDS011;56392;51.082;17.080;2022-12-11T07:18:22;37.00;;;14.17;;
69280;SDS011;56392;51.082;17.080;2022-12-11T07:23:47;35.63;;;15.35;;
69280;SDS011;56392;51.082;17.080;2022-12-11T07:29:12;36.22;;;13.77;;
69280;SDS011;56392;51.082;17.080;2022-12-11T07:34:35;33.10;;;14.77;;
69280;SDS011;56392;51.082;17.080;2022-12-11T07:40:02;33.58;;;12.57;;
69280;SDS011;56392;51.082;17.080;2022-12-11T07:45:25;33.50;;;13.73;;
69280;SDS011;56392;51.082;17.080;2022-12-11T07:50:48;35.23;;;13.77;;
69280;SDS011;56392;51.082;17.080;2022-12-11T07:56:12;35.53;;;14.68;;
69280;SDS011;56392;51.082;17.080;2022-12-11T08:01:36;32.00;;;12.77;;
69280;SDS011;56392;51.082;17.080;2022-12-11T08:07:00;34.90;;;13.90;;
69280;SDS011;56392;51.082;17.080;2022-12-11T08:12:25;33.53;;;13.43;;
69280;SDS011;56392;51.082;17.080;2022-12-11T08:17:48;31.98;;;13.35;;
69280;SDS011;56392;51.082;17.080;2022-12-11T08:23:11;33.23;;;12.57;;
69280;SDS011;56392;51.082;17.080;2022-12-11T08:28:35;29.85;;;12.93;;
69280;SDS011;56392;51.082;17.080;2022-12-11T08:33:59;31.00;;;12.20;;
69280;SDS011;56392;51.082;17.080;2022-12-11T08:39:22;28.53;;;11.63;;
69280;SDS011;56392;51.082;17.080;2022-12-11T08:44:47;30.95;;;12.13;;
69280;SDS011;56392;51.082;17.080;2022-12-11T08:50:10;28.98;;;12.48;;
69280;SDS011;56392;51.082;17.080;2022-12-11T08:55:33;33.90;;;13.27;;
69280;SDS011;56392;51.082;17.080;2022-12-11T09:00:58;29.75;;;12.68;;
69280;SDS011;56392;51.082;17.080;2022-12-11T09:06:22;28.43;;;11.43;;
69280;SDS011;56392;51.082;17.080;2022-12-11T09:11:47;28.43;;;10.63;;
69280;SDS011;56392;51.082;17.080;2022-12-11T09:17:11;30.33;;;11.65;;
69280;SDS011;56392;51.082;17.080;2022-12-11T09:22:34;28.65;;;10.82;;
69280;SDS011;56392;51.082;17.080;2022-12-11T09:27:57;27.27;;;10.73;;
69280;SDS011;56392;51.082;17.080;2022-12-11T09:33:23;26.50;;;9.93;;
69280;SDS011;56392;51.082;17.080;2022-12-11T09:38:46;28.13;;;10.90;;
69280;SDS011;56392;51.082;17.080;2022-12-11T09:44:15;28.67;;;11.20;;
69280;SDS011;56392;51.082;17.080;2022-12-11T09:49:48;25.45;;;10.95;;
69280;SDS011;56392;51.082;17.080;2022-12-11T09:55:16;25.67;;;10.10;;
69280;SDS011;56392;51.082;17.080;2022-12-11T10:00:42;28.93;;;12.13;;
69280;SDS011;56392;51.082;17.080;2022-12-11T10:06:14;26.23;;;10.13;;
69280;SDS011;56392;51.082;17.080;2022-12-11T10:11:49;24.83;;;10.23;;
69280;SDS011;56392;51.082;17.080;2022-12-11T10:17:27;28.13;;;11.40;;
69280;SDS011;56392;51.082;17.080;2022-12-11T10:22:53;28.23;;;12.07;;
69280;SDS011;56392;51.082;17.080;2022-12-11T10:28:18;23.77;;;11.23;;
69280;SDS011;56392;51.082;17.080;2022-12-11T10:33:44;26.73;;;11.03;;
69280;SDS011;56392;51.082;17.080;2022-12-11T10:39:21;24.13;;;9.57;;
69280;SDS011;56392;51.082;17.080;2022-12-11T10:44:53;20.45;;;9.45;;
69280;SDS011;56392;51.082;17.080;2022-12-11T10:50:22;24.27;;;9.67;;
69280;SDS011;56392;51.082;17.080;2022-12-11T10:55:48;24.65;;;10.13;;
69280;SDS011;56392;51.082;17.080;2022-12-11T11:01:13;22.90;;;10.00;;
69280;SDS011;56392;51.082;17.080;2022-12-11T11:06:38;18.83;;;8.90;;
69280;SDS011;56392;51.082;17.080;2022-12-11T11:12:02;23.90;;;9.65;;
69280;SDS011;56392;51.082;17.080;2022-12-11T11:17:26;23.35;;;9.77;;
69280;SDS011;56392;51.082;17.080;2022-12-11T11:22:49;24.43;;;10.10;;
69280;SDS011;56392;51.082;17.080;2022-12-11T11:28:16;28.27;;;11.27;;
69280;SDS011;56392;51.082;17.080;2022-12-11T11:33:44;21.50;;;9.50;;
69280;SDS011;56392;51.082;17.080;2022-12-11T11:39:14;19.00;;;7.90;;
69280;SDS011;56392;51.082;17.080;2022-12-11T11:44:43;22.30;;;9.10;;
69280;SDS011;56392;51.082;17.080;2022-12-11T11:50:14;23.10;;;9.88;;
69280;SDS011;56392;51.082;17.080;2022-12-11T11:55:45;20.67;;;9.60;;
69280;SDS011;56392;51.082;17.080;2022-12-11T12:01:17;24.85;;;9.75;;
69280;SDS011;56392;51.082;17.080;2022-12-11T12:06:54;22.57;;;9.77;;
69280;SDS011;56392;51.082;17.080;2022-12-11T12:12:30;23.10;;;10.13;;
69280;SDS011;56392;51.082;17.080;2022-12-11T12:18:05;24.00;;;10.27;;
69280;SDS011;56392;51.082;17.080;2022-12-11T12:23:41;23.77;;;10.37;;
69280;SDS011;56392;51.082;17.080;2022-12-11T12:29:16;22.53;;;10.00;;
69280;SDS011;56392;51.082;17.080;2022-12-11T12:34:50;21.45;;;8.85;;
69280;SDS011;56392;51.082;17.080;2022-12-11T12:40:23;23.13;;;8.77;;
69280;SDS011;56392;51.082;17.080;2022-12-11T12:45:53;23.43;;;9.30;;
69280;SDS011;56392;51.082;17.080;2022-12-11T12:51:22;23.00;;;9.50;;
69280;SDS011;56392;51.082;17.080;2022-12-11T12:56:46;21.47;;;9.77;;
69280;SDS011;56392;51.082;17.080;2022-12-11T13:02:11;19.27;;;6.57;;
69280;SDS011;56392;51.082;17.080;2022-12-11T13:07:39;22.65;;;9.55;;
69280;SDS011;56392;51.082;17.080;2022-12-11T13:13:25;23.20;;;10.30;;
69280;SDS011;56392;51.082;17.080;2022-12-11T13:18:54;22.07;;;9.50;;
69280;SDS011;56392;51.082;17.080;2022-12-11T13:24:24;21.52;;;9.65;;
69280;SDS011;56392;51.082;17.080;2022-12-11T13:29:49;23.20;;;9.50;;
69280;SDS011;56392;51.082;17.080;2022-12-11T13:35:13;23.83;;;9.63;;
69280;SDS011;56392;51.082;17.080;2022-12-11T13:40:41;24.55;;;9.70;;
69280;SDS011;56392;51.082;17.080;2022-12-11T13:46:06;18.47;;;7.10;;
69280;SDS011;56392;51.082;17.080;2022-12-11T13:51:31;14.67;;;5.97;;
69280;SDS011;56392;51.082;17.080;2022-12-11T13:57:00;12.45;;;4.45;;
69280;SDS011;56392;51.082;17.080;2022-12-11T14:02:26;20.27;;;8.03;;
69280;SDS011;56392;51.082;17.080;2022-12-11T14:07:52;16.90;;;6.30;;
69280;SDS011;56392;51.082;17.080;2022-12-11T14:13:19;16.90;;;6.93;;
69280;SDS011;56392;51.082;17.080;2022-12-11T14:18:46;17.87;;;7.17;;
69280;SDS011;56392;51.082;17.080;2022-12-11T14:24:11;18.57;;;7.53;;
69280;SDS011;56392;51.082;17.080;2022-12-11T14:29:36;18.13;;;7.40;;
69280;SDS011;56392;51.082;17.080;2022-12-11T14:34:59;17.60;;;7.30;;
69280;SDS011;56392;51.082;17.080;2022-12-11T14:40:26;18.00;;;6.37;;
69280;SDS011;56392;51.082;17.080;2022-12-11T14:45:54;18.75;;;6.60;;
69280;SDS011;56392;51.082;17.080;2022-12-11T14:51:20;17.00;;;6.90;;
69280;SDS011;56392;51.082;17.080;2022-12-11T14:56:44;17.13;;;6.50;;
69280;SDS011;56392;51.082;17.080;2022-12-11T15:02:21;17.00;;;6.65;;
69280;SDS011;56392;51.082;17.080;2022-12-11T15:07:52;16.93;;;6.53;;
69280;SDS011;56392;51.082;17.080;2022-12-11T15:13:21;18.47;;;7.07;;
69280;SDS011;56392;51.082;17.080;2022-12-11T15:18:47;20.05;;;7.75;;
69280;SDS011;56392;51.082;17.080;2022-12-11T15:24:20;21.07;;;9.23;;
69280;SDS011;56392;51.082;17.080;2022-12-11T15:29:46;24.53;;;9.63;;
69280;SDS011;56392;51.082;17.080;2022-12-11T15:35:21;23.67;;;9.88;;
69280;SDS011;56392;51.082;17.080;2022-12-11T15:40:45;23.63;;;9.40;;
69280;SDS011;56392;51.082;17.080;2022-12-11T15:46:08;20.77;;;8.07;;
69280;SDS011;56392;51.082;17.080;2022-12-11T15:51:32;20.77;;;8.48;;
69280;SDS011;56392;51.082;17.080;2022-12-11T15:56:55;21.10;;;8.57;;
69280;SDS011;56392;51.082;17.080;2022-12-11T16:02:19;19.00;;;8.70;;
69280;SDS011;56392;51.082;17.080;2022-12-11T16:07:43;17.05;;;6.90;;
69280;SDS011;56392;51.082;17.080;2022-12-11T16:13:06;19.07;;;8.50;;
69280;SDS011;56392;51.082;17.080;2022-12-11T16:18:29;13.37;;;5.37;;
69280;SDS011;56392;51.082;17.080;2022-12-11T16:23:53;18.25;;;7.57;;
69280;SDS011;56392;51.082;17.080;2022-12-11T16:29:17;19.67;;;7.73;;
69280;SDS011;56392;51.082;17.080;2022-12-11T16:34:40;18.87;;;7.80;;
69280;SDS011;56392;51.082;17.080;2022-12-11T16:40:05;18.13;;;7.45;;
69280;SDS011;56392;51.082;17.080;2022-12-11T16:45:28;14.33;;;5.20;;
69280;SDS011;56392;51.082;17.080;2022-12-11T16:50:52;19.90;;;7.57;;
69280;SDS011;56392;51.082;17.080;2022-12-11T16:56:17;16.98;;;7.07;;
69280;SDS011;56392;51.082;17.080;2022-12-11T17:01:40;17.47;;;7.73;;
69280;SDS011;56392;51.082;17.080;2022-12-11T17:07:03;17.48;;;7.20;;
69280;SDS011;56392;51.082;17.080;2022-12-11T17:12:28;17.05;;;7.47;;
69280;SDS011;56392;51.082;17.080;2022-12-11T17:17:51;18.40;;;7.53;;
69280;SDS011;56392;51.082;17.080;2022-12-11T17:23:14;18.75;;;7.80;;
69280;SDS011;56392;51.082;17.080;2022-12-11T17:28:38;19.63;;;7.93;;
69280;SDS011;56392;51.082;17.080;2022-12-11T17:34:01;19.37;;;8.43;;
69280;SDS011;56392;51.082;17.080;2022-12-11T17:39:25;22.73;;;9.27;;
69280;SDS011;56392;51.082;17.080;2022-12-11T17:44:49;21.63;;;8.43;;
69280;SDS011;56392;51.082;17.080;2022-12-11T17:50:12;20.67;;;8.73;;
69280;SDS011;56392;51.082;17.080;2022-12-11T17:55:36;22.95;;;8.85;;
69280;SDS011;56392;51.082;17.080;2022-12-11T18:01:06;26.87;;;9.47;;
69280;SDS011;56392;51.082;17.080;2022-12-11T18:06:30;21.57;;;9.23;;
69280;SDS011;56392;51.082;17.080;2022-12-11T18:11:53;20.23;;;8.57;;
69280;SDS011;56392;51.082;17.080;2022-12-11T18:17:17;21.03;;;8.20;;
69280;SDS011;56392;51.082;17.080;2022-12-11T18:22:42;21.97;;;8.87;;
69280;SDS011;56392;51.082;17.080;2022-12-11T18:28:05;20.90;;;8.48;;
69280;SDS011;56392;51.082;17.080;2022-12-11T18:33:29;24.53;;;9.83;;
69280;SDS011;56392;51.082;17.080;2022-12-11T18:38:54;25.47;;;10.30;;
69280;SDS011;56392;51.082;17.080;2022-12-11T18:44:17;26.75;;;10.25;;
69280;SDS011;56392;51.082;17.080;2022-12-11T18:49:44;27.50;;;9.82;;
69280;SDS011;56392;51.082;17.080;2022-12-11T18:55:07;23.43;;;9.73;;
69280;SDS011;56392;51.082;17.080;2022-12-11T19:00:30;28.13;;;10.95;;
69280;SDS011;56392;51.082;17.080;2022-12-11T19:05:56;26.03;;;10.70;;
69280;SDS011;56392;51.082;17.080;2022-12-11T19:11:28;25.47;;;10.60;;
69280;SDS011;56392;51.082;17.080;2022-12-11T19:16:53;28.15;;;10.00;;
69280;SDS011;56392;51.082;17.080;2022-12-11T19:22:17;26.47;;;10.60;;
69280;SDS011;56392;51.082;17.080;2022-12-11T19:27:41;28.40;;;10.07;;
69280;SDS011;56392;51.082;17.080;2022-12-11T19:33:04;25.08;;;10.82;;
69280;SDS011;56392;51.082;17.080;2022-12-11T19:38:28;28.17;;;10.80;;
69280;SDS011;56392;51.082;17.080;2022-12-11T19:43:52;26.23;;;10.60;;
69280;SDS011;56392;51.082;17.080;2022-12-11T19:49:16;27.98;;;10.50;;
69280;SDS011;56392;51.082;17.080;2022-12-11T19:54:41;27.30;;;11.47;;
69280;SDS011;56392;51.082;17.080;2022-12-11T20:00:04;23.93;;;11.17;;
69280;SDS011;56392;51.082;17.080;2022-12-11T20:05:29;27.67;;;11.70;;
69280;SDS011;56392;51.082;17.080;2022-12-11T20:10:54;29.90;;;10.07;;
69280;SDS011;56392;51.082;17.080;2022-12-11T20:16:17;26.93;;;10.07;;
69280;SDS011;56392;51.082;17.080;2022-12-11T20:21:40;27.25;;;10.80;;
69280;SDS011;56392;51.082;17.080;2022-12-11T20:27:05;28.23;;;11.40;;
69280;SDS011;56392;51.082;17.080;2022-12-11T20:32:29;28.90;;;11.13;;
69280;SDS011;56392;51.082;17.080;2022-12-11T20:37:53;29.63;;;11.27;;
69280;SDS011;56392;51.082;17.080;2022-12-11T20:43:18;26.77;;;11.03;;
69280;SDS011;56392;51.082;17.080;2022-12-11T20:48:41;28.73;;;10.37;;
69280;SDS011;56392;51.082;17.080;2022-12-11T20:54:05;27.60;;;11.25;;
69280;SDS011;56392;51.082;17.080;2022-12-11T20:59:30;30.13;;;12.00;;
69280;SDS011;56392;51.082;17.080;2022-12-11T21:04:53;28.40;;;11.90;;
69280;SDS011;56392;51.082;17.080;2022-12-11T21:10:17;28.48;;;10.60;;
69280;SDS011;56392;51.082;17.080;2022-12-11T21:15:42;28.07;;;11.10;;
69280;SDS011;56392;51.082;17.080;2022-12-11T21:21:05;30.00;;;11.67;;
69280;SDS011;56392;51.082;17.080;2022-12-11T21:26:28;31.80;;;12.10;;
69280;SDS011;56392;51.082;17.080;2022-12-11T21:31:52;30.27;;;10.77;;
69280;SDS011;56392;51.082;17.080;2022-12-11T21:37:15;30.97;;;11.90;;
69280;SDS011;56392;51.082;17.080;2022-12-11T21:42:38;28.80;;;12.07;;
69280;SDS011;56392;51.082;17.080;2022-12-11T21:48:03;28.77;;;11.60;;
69280;SDS011;56392;51.082;17.080;2022-12-11T21:53:26;25.97;;;10.40;;
69280;SDS011;56392;51.082;17.080;2022-12-11T21:58:49;27.42;;;12.13;;
69280;SDS011;56392;51.082;17.080;2022-12-11T22:04:15;28.40;;;11.43;;
69280;SDS011;56392;51.082;17.080;2022-12-11T22:09:38;31.37;;;11.77;;
69280;SDS011;56392;51.082;17.080;2022-12-11T22:15:01;28.85;;;11.95;;
69280;SDS011;56392;51.082;17.080;2022-12-11T22:20:25;29.40;;;11.23;;
69280;SDS011;56392;51.082;17.080;2022-12-11T22:25:48;28.43;;;11.47;;
69280;SDS011;56392;51.082;17.080;2022-12-11T22:31:13;30.75;;;11.55;;
69280;SDS011;56392;51.082;17.080;2022-12-11T22:36:38;29.20;;;11.70;;
69280;SDS011;56392;51.082;17.080;2022-12-11T22:42:01;29.60;;;12.57;;
69280;SDS011;56392;51.082;17.080;2022-12-11T22:47:24;27.13;;;11.13;;
69280;SDS011;56392;51.082;17.080;2022-12-11T22:52:49;32.13;;;12.23;;
69280;SDS011;56392;51.082;17.080;2022-12-11T22:58:12;30.40;;;12.17;;
69280;SDS011;56392;51.082;17.080;2022-12-11T23:03:35;28.25;;;10.35;;
69280;SDS011;56392;51.082;17.080;2022-12-11T23:09:00;26.97;;;11.40;;
69280;SDS011;56392;51.082;17.080;2022-12-11T23:14:23;29.17;;;11.70;;
69280;SDS011;56392;51.082;17.080;2022-12-11T23:19:47;30.55;;;11.48;;
69280;SDS011;56392;51.082;17.080;2022-12-11T23:25:12;27.83;;;11.63;;
69280;SDS011;56392;51.082;17.080;2022-12-11T23:30:35;30.02;;;12.13;;
69280;SDS011;56392;51.082;17.080;2022-12-11T23:35:58;31.65;;;12.80;;
69280;SDS011;56392;51.082;17.080;2022-12-11T23:41:23;28.43;;;10.53;;
69280;SDS011;56392;51.082;17.080;2022-12-11T23:46:46;30.55;;;11.50;;
69280;SDS011;56392;51.082;17.080;2022-12-11T23:52:09;36.63;;;12.23;;
69280;SDS011;56392;51.082;17.080;2022-12-11T23:57:34;30.47;;;12.33;;
